Time;durP1;ratioP1;P1;durP2;ratioP2;P2;SDS_P1;SDS_P2;PMS_P1;PMS_P2;Temp;Humidity;BMP_temperature;BMP_pressure;BME280_temperature;BME280_humidity;BME280_pressure;Samples;Min_cycle;Max_cycle;Signal;HPM_P1;HPM_P2
2022/09/18 00:00:43;;;;;;;9.10;1.52;;;9.00;99.90;;;;;;5035337;28;20053;-69
2022/09/18 00:03:09;;;;;;;5.80;1.05;;;9.50;99.90;;;;;;5017009;28;20489;-79
2022/09/18 00:05:36;;;;;;;6.57;1.02;;;9.00;99.90;;;;;;5017642;28;20045;-73
2022/09/18 00:08:02;;;;;;;4.47;1.10;;;9.00;99.90;;;;;;5017610;28;20115;-81
2022/09/18 00:10:28;;;;;;;5.72;1.02;;;8.90;99.90;;;;;;5017381;28;20041;-80
2022/09/18 00:12:54;;;;;;;10.25;1.23;;;8.90;99.90;;;;;;5016707;28;20060;-72
2022/09/18 00:15:20;;;;;;;6.15;1.38;;;8.80;99.90;;;;;;5017232;28;20122;-71
2022/09/18 00:17:46;;;;;;;7.50;1.00;;;9.10;99.90;;;;;;5017118;28;20132;-78
2022/09/18 00:20:12;;;;;;;9.30;1.30;;;8.80;99.90;;;;;;5035029;28;20071;-75
2022/09/18 00:22:39;;;;;;;5.95;1.60;;;8.80;99.90;;;;;;5034822;28;20120;-71
2022/09/18 00:25:06;;;;;;;6.95;1.00;;;8.80;99.90;;;;;;5035007;28;20369;-79
2022/09/18 00:27:32;;;;;;;9.05;1.17;;;8.80;99.90;;;;;;5034758;28;20063;-71
2022/09/18 00:29:57;;;;;;;6.55;1.48;;;8.80;99.90;;;;;;5034452;28;20128;-82
2022/09/18 00:32:23;;;;;;;7.15;1.38;;;9.20;99.90;;;;;;5034907;28;20044;-78
2022/09/18 00:34:49;;;;;;;5.03;0.98;;;8.90;99.90;;;;;;5016682;28;20081;-81
2022/09/18 00:37:14;;;;;;;6.32;1.20;;;8.90;99.90;;;;;;5013467;28;20053;-79
2022/09/18 00:39:40;;;;;;;5.95;1.13;;;8.90;99.90;;;;;;4996857;28;20057;-78
2022/09/18 00:42:09;;;;;;;5.22;1.05;;;9.00;99.90;;;;;;5014836;28;20122;-73
2022/09/18 00:44:43;;;;;;;15.93;1.30;;;9.00;99.90;;;;;;4997035;28;20392;-74
2022/09/18 00:47:08;;;;;;;8.00;1.33;;;9.20;99.90;;;;;;5014577;28;20046;-80
2022/09/18 00:49:37;;;;;;;6.63;1.20;;;9.10;99.90;;;;;;5014760;28;20042;-76
2022/09/18 00:52:03;;;;;;;6.55;0.90;;;9.50;99.90;;;;;;4997114;28;20057;-78
2022/09/18 00:54:38;;;;;;;12.65;1.58;;;9.10;99.90;;;;;;4996820;28;20133;-73
2022/09/18 00:57:17;;;;;;;6.10;1.20;;;9.20;99.90;;;;;;4996919;28;20038;-73
2022/09/18 00:59:45;;;;;;;4.60;1.10;;;9.20;99.90;;;;;;4996350;28;20056;-79
2022/09/18 01:02:11;;;;;;;8.13;0.98;;;9.20;99.90;;;;;;5014280;28;20089;-76
2022/09/18 01:04:37;;;;;;;8.43;1.13;;;9.10;99.90;;;;;;5014373;28;20049;-73
2022/09/18 01:07:21;;;;;;;6.45;0.95;;;9.10;99.90;;;;;;5014429;28;20457;-73
2022/09/18 01:10:07;;;;;;;4.78;0.90;;;9.10;99.90;;;;;;4996928;28;20054;-70
2022/09/18 01:12:58;;;;;;;5.85;1.30;;;9.00;99.90;;;;;;4996183;28;20069;-70
2022/09/18 01:15:26;;;;;;;3.75;0.80;;;9.00;99.90;;;;;;5013448;28;20057;-70
2022/09/18 01:18:02;;;;;;;5.30;0.90;;;9.00;99.90;;;;;;5013689;28;20045;-70
2022/09/18 01:20:49;;;;;;;7.85;1.20;;;9.00;99.90;;;;;;4996630;28;20057;-69
2022/09/18 01:23:58;;;;;;;9.55;1.20;;;9.10;99.90;;;;;;5013712;28;20490;-72
2022/09/18 01:26:41;;;;;;;7.13;1.63;;;9.00;99.90;;;;;;5013912;28;20472;-70
2022/09/18 01:29:25;;;;;;;5.85;0.80;;;9.00;99.90;;;;;;5013972;28;20052;-79
2022/09/18 01:31:59;;;;;;;8.63;1.15;;;9.00;99.90;;;;;;5013402;28;20051;-78
2022/09/18 01:34:33;;;;;;;4.63;0.90;;;9.00;99.90;;;;;;4996207;28;20049;-81
2022/09/18 01:37:12;;;;;;;8.57;1.15;;;9.20;99.90;;;;;;5013581;28;20065;-81
2022/09/18 01:39:49;;;;;;;7.20;1.27;;;9.10;99.90;;;;;;4996398;28;20128;-76
2022/09/18 01:42:17;;;;;;;9.95;1.30;;;9.10;99.90;;;;;;5013691;28;20549;-80
2022/09/18 01:44:45;;;;;;;8.35;1.10;;;9.00;99.90;;;;;;5013456;28;20038;-77
2022/09/18 01:47:14;;;;;;;6.70;1.35;;;9.10;99.90;;;;;;5012739;28;20049;-81
2022/09/18 01:49:44;;;;;;;4.80;1.48;;;9.10;99.90;;;;;;5013216;28;20481;-76
2022/09/18 01:52:30;;;;;;;5.30;1.20;;;9.30;99.90;;;;;;4995951;28;20076;-75
2022/09/18 01:54:58;;;;;;;4.82;0.90;;;9.00;99.90;;;;;;4979629;28;20045;-79
2022/09/18 01:57:53;;;;;;;6.25;1.00;;;9.00;99.90;;;;;;5013481;28;20045;-82
2022/09/18 02:00:20;;;;;;;8.15;1.10;;;9.00;99.90;;;;;;4996012;28;20065;-79
2022/09/18 02:03:01;;;;;;;8.93;1.30;;;8.90;99.90;;;;;;4995122;28;20509;-77
2022/09/18 02:05:48;;;;;;;7.72;1.13;;;8.90;99.90;;;;;;5013273;28;20100;-80
2022/09/18 02:08:27;;;;;;;4.30;1.13;;;8.90;99.90;;;;;;4995860;28;20121;-76
2022/09/18 02:11:14;;;;;;;7.20;0.90;;;8.80;99.90;;;;;;5013440;28;20103;-82
2022/09/18 02:13:48;;;;;;;5.43;1.38;;;8.90;99.90;;;;;;4995475;28;20050;-78
2022/09/18 02:16:32;;;;;;;5.57;1.00;;;8.90;99.90;;;;;;4995494;28;20045;-78
2022/09/18 02:19:07;;;;;;;5.72;1.10;;;8.90;99.90;;;;;;5012518;28;20054;-80
2022/09/18 02:21:35;;;;;;;6.22;1.13;;;9.10;99.90;;;;;;4995505;28;20496;-81
2022/09/18 02:24:07;;;;;;;7.53;1.73;;;9.20;99.90;;;;;;5013221;28;20038;-81
2022/09/18 02:26:36;;;;;;;5.80;1.17;;;9.00;99.90;;;;;;4979179;28;20037;-77
2022/09/18 02:29:03;;;;;;;6.63;1.08;;;9.20;99.90;;;;;;5013162;28;20081;-82
2022/09/18 02:31:30;;;;;;;10.57;1.48;;;9.00;99.90;;;;;;5012715;28;20045;-79
2022/09/18 02:33:55;;;;;;;6.80;1.13;;;8.90;99.90;;;;;;5012716;28;20048;-83
2022/09/18 02:36:46;;;;;;;5.45;1.10;;;9.20;99.90;;;;;;5012759;28;20041;-82
2022/09/18 02:39:25;;;;;;;4.43;0.82;;;8.90;99.90;;;;;;5012779;28;20056;-80
2022/09/18 02:42:28;;;;;;;5.40;1.05;;;8.90;99.90;;;;;;5012745;28;20560;-81
2022/09/18 02:45:05;;;;;;;8.20;1.80;;;8.90;99.90;;;;;;4995189;28;20049;-79
2022/09/18 02:48:10;;;;;;;5.78;1.10;;;8.90;99.90;;;;;;4995184;28;20061;-78
2022/09/18 02:51:04;;;;;;;6.22;1.50;;;8.90;99.90;;;;;;5012332;28;20157;-77
2022/09/18 02:53:35;;;;;;;12.02;2.35;;;8.90;99.90;;;;;;5012739;28;20065;-79
2022/09/18 02:56:12;;;;;;;5.20;0.88;;;8.90;99.90;;;;;;4995242;28;20493;-71
2022/09/18 02:58:52;;;;;;;6.32;1.08;;;8.80;99.90;;;;;;5015281;28;20053;-73
2022/09/18 03:01:20;;;;;;;5.97;1.00;;;9.00;99.90;;;;;;4999282;28;20054;-72
2022/09/18 03:03:46;;;;;;;9.10;1.55;;;9.00;99.90;;;;;;5016618;28;20042;-79
2022/09/18 03:06:12;;;;;;;5.88;1.02;;;9.10;99.90;;;;;;5016180;28;20041;-72
2022/09/18 03:08:38;;;;;;;3.22;0.80;;;9.20;99.90;;;;;;5016672;28;20073;-72
2022/09/18 03:11:04;;;;;;;7.82;2.22;;;9.20;99.90;;;;;;4998792;28;20133;-71
2022/09/18 03:13:30;;;;;;;9.25;1.40;;;9.20;99.90;;;;;;5016161;28;20081;-81
2022/09/18 03:15:55;;;;;;;7.25;1.35;;;9.20;99.90;;;;;;5016309;28;20077;-70
2022/09/18 03:18:21;;;;;;;6.95;1.20;;;9.20;99.90;;;;;;5016530;28;20077;-75
2022/09/18 03:20:47;;;;;;;6.63;1.30;;;9.20;99.90;;;;;;5016265;28;20077;-82
2022/09/18 03:23:13;;;;;;;5.72;1.13;;;9.20;99.90;;;;;;5016279;28;20452;-80
2022/09/18 03:25:38;;;;;;;4.22;1.02;;;9.20;99.90;;;;;;5016266;28;20513;-71
2022/09/18 03:28:04;;;;;;;5.18;1.00;;;9.20;99.90;;;;;;5016454;28;20058;-80
2022/09/18 03:30:30;;;;;;;9.73;2.08;;;9.20;99.90;;;;;;5016124;28;20501;-80
2022/09/18 03:32:56;;;;;;;8.70;1.50;;;9.20;99.90;;;;;;5016128;28;20038;-82
2022/09/18 03:35:22;;;;;;;6.50;1.00;;;9.20;99.90;;;;;;5016023;28;20418;-81
2022/09/18 03:37:47;;;;;;;6.97;1.00;;;9.20;99.90;;;;;;5015548;28;20054;-80
2022/09/18 03:40:14;;;;;;;8.05;1.73;;;9.30;99.90;;;;;;4998467;28;20081;-81
2022/09/18 03:42:43;;;;;;;10.52;1.20;;;9.30;99.90;;;;;;5015672;28;20095;-79
2022/09/18 03:45:10;;;;;;;6.40;1.20;;;9.30;99.90;;;;;;5016124;28;20467;-71
2022/09/18 03:47:36;;;;;;;10.80;1.35;;;9.30;99.90;;;;;;4998820;28;20042;-74
2022/09/18 03:50:03;;;;;;;7.40;1.48;;;9.40;99.90;;;;;;4998118;28;20104;-81
2022/09/18 03:52:29;;;;;;;6.75;1.15;;;9.40;99.90;;;;;;5015420;28;20052;-81
2022/09/18 03:54:54;;;;;;;10.60;1.77;;;9.40;99.90;;;;;;4998411;28;20063;-81
2022/09/18 03:57:20;;;;;;;6.20;1.20;;;9.40;99.90;;;;;;4997786;28;20099;-81
2022/09/18 03:59:46;;;;;;;6.13;0.82;;;9.50;99.90;;;;;;4998052;28;20038;-81
2022/09/18 04:02:11;;;;;;;8.63;1.02;;;9.40;99.90;;;;;;5015723;28;20034;-80
2022/09/18 04:04:37;;;;;;;7.50;0.93;;;9.40;99.90;;;;;;5015627;28;20482;-80
2022/09/18 04:07:03;;;;;;;8.20;1.00;;;9.40;99.90;;;;;;5015612;28;20038;-81
2022/09/18 04:09:29;;;;;;;4.55;0.88;;;9.40;99.90;;;;;;5014397;28;20112;-79
2022/09/18 04:11:54;;;;;;;8.13;1.20;;;9.40;99.90;;;;;;4997605;28;20406;-81
2022/09/18 04:14:21;;;;;;;5.43;1.10;;;9.40;99.90;;;;;;5015100;28;20049;-82
2022/09/18 04:16:48;;;;;;;8.50;1.27;;;9.40;99.90;;;;;;5015227;28;20041;-73
2022/09/18 04:19:13;;;;;;;7.22;1.00;;;9.40;99.90;;;;;;5015416;28;20095;-81
2022/09/18 04:21:39;;;;;;;8.43;0.98;;;9.60;99.90;;;;;;4998091;28;20058;-77
2022/09/18 04:24:05;;;;;;;5.80;1.20;;;9.40;99.90;;;;;;5014823;28;20057;-78
2022/09/18 04:26:33;;;;;;;5.50;1.00;;;9.40;99.90;;;;;;4997480;28;20049;-81
2022/09/18 04:28:59;;;;;;;6.07;1.00;;;9.60;99.90;;;;;;4997394;28;20053;-79
2022/09/18 04:31:24;;;;;;;6.32;1.00;;;9.60;99.90;;;;;;5014786;28;20049;-82
2022/09/18 04:33:50;;;;;;;6.28;0.98;;;9.40;99.90;;;;;;4997434;28;20132;-81
2022/09/18 04:36:16;;;;;;;13.25;1.40;;;9.40;99.90;;;;;;5014803;28;20143;-78
2022/09/18 04:38:41;;;;;;;5.75;1.00;;;9.40;99.90;;;;;;5014640;28;20420;-80
2022/09/18 04:41:07;;;;;;;4.28;0.80;;;9.30;99.90;;;;;;4997417;28;20501;-80
2022/09/18 04:43:33;;;;;;;7.22;1.08;;;9.30;99.90;;;;;;4997399;28;20056;-82
2022/09/18 04:45:58;;;;;;;7.47;1.23;;;9.60;99.90;;;;;;5014669;28;20046;-79
2022/09/18 04:48:24;;;;;;;8.05;1.45;;;9.40;99.90;;;;;;5014876;28;20125;-81
2022/09/18 04:50:50;;;;;;;4.90;1.00;;;9.40;99.90;;;;;;5014791;28;20053;-73
2022/09/18 04:53:16;;;;;;;7.18;1.17;;;9.50;99.90;;;;;;5018689;28;20034;-76
2022/09/18 04:55:43;;;;;;;6.03;1.20;;;9.50;99.90;;;;;;5014564;28;20088;-72
2022/09/18 04:58:09;;;;;;;5.15;1.20;;;9.70;99.90;;;;;;5014686;28;20041;-72
2022/09/18 05:00:37;;;;;;;3.97;0.80;;;9.50;99.90;;;;;;4997164;28;20095;-78
2022/09/18 05:03:06;;;;;;;4.18;1.05;;;9.50;99.90;;;;;;4997577;28;20054;-80
2022/09/18 05:05:32;;;;;;;7.65;1.05;;;9.40;99.90;;;;;;4981997;28;20046;-76
2022/09/18 05:07:58;;;;;;;6.53;1.08;;;9.40;99.90;;;;;;4980879;28;20085;-67
2022/09/18 05:10:24;;;;;;;5.85;1.10;;;9.60;99.90;;;;;;5013940;28;20052;-70
2022/09/18 05:12:50;;;;;;;3.50;0.90;;;9.50;99.90;;;;;;5014056;28;20405;-72
2022/09/18 05:15:16;;;;;;;7.18;1.17;;;9.40;99.90;;;;;;5014087;28;20050;-70
2022/09/18 05:17:42;;;;;;;5.70;1.10;;;9.40;99.90;;;;;;4996390;28;20128;-70
2022/09/18 05:20:08;;;;;;;8.57;1.23;;;9.40;99.90;;;;;;5013312;28;20074;-70
2022/09/18 05:22:34;;;;;;;5.35;0.90;;;9.50;99.90;;;;;;4996626;28;20061;-71
2022/09/18 05:25:00;;;;;;;3.67;0.73;;;9.80;99.90;;;;;;5014290;28;20085;-70
2022/09/18 05:27:25;;;;;;;4.20;0.90;;;9.40;99.90;;;;;;4996161;28;20073;-72
2022/09/18 05:29:51;;;;;;;7.07;1.00;;;9.50;99.90;;;;;;5013530;28;20131;-71
2022/09/18 05:32:19;;;;;;;8.50;0.90;;;9.50;99.90;;;;;;5014250;28;20050;-71
2022/09/18 05:34:48;;;;;;;3.72;1.20;;;9.60;99.90;;;;;;5013984;28;20041;-72
2022/09/18 05:37:17;;;;;;;6.28;0.90;;;9.60;99.90;;;;;;5013688;28;20092;-76
2022/09/18 05:39:43;;;;;;;5.07;0.70;;;9.60;99.90;;;;;;5012781;28;20132;-70
2022/09/18 05:42:09;;;;;;;6.68;0.82;;;9.60;99.90;;;;;;5013468;28;20128;-69
2022/09/18 05:44:35;;;;;;;6.38;1.20;;;9.60;99.90;;;;;;4996223;28;20042;-71
2022/09/18 05:47:01;;;;;;;7.68;1.00;;;9.60;99.90;;;;;;4995855;28;20051;-68
2022/09/18 05:49:27;;;;;;;6.07;1.00;;;9.60;99.90;;;;;;4995832;28;20046;-73
2022/09/18 05:51:55;;;;;;;7.25;1.10;;;9.70;99.90;;;;;;5013446;28;20441;-70
2022/09/18 05:54:21;;;;;;;3.20;0.70;;;9.60;99.90;;;;;;5013617;28;20041;-71
2022/09/18 05:56:47;;;;;;;7.93;1.02;;;9.70;99.90;;;;;;4996068;28;20557;-75
2022/09/18 05:59:13;;;;;;;6.90;1.00;;;9.70;99.90;;;;;;4995415;28;20046;-75
2022/09/18 06:01:38;;;;;;;5.60;0.90;;;9.70;99.90;;;;;;5013362;28;20513;-80
2022/09/18 06:04:04;;;;;;;4.32;1.00;;;9.70;99.90;;;;;;5013309;28;20046;-81
2022/09/18 06:06:30;;;;;;;5.63;0.70;;;9.70;99.90;;;;;;5013509;28;20128;-71
2022/09/18 06:08:56;;;;;;;3.00;0.60;;;9.70;99.90;;;;;;5013386;28;20434;-73
2022/09/18 06:11:22;;;;;;;7.35;1.02;;;9.70;99.90;;;;;;5013233;28;20092;-73
2022/09/18 06:13:50;;;;;;;2.92;0.80;;;9.80;99.90;;;;;;4995389;28;20077;-71
2022/09/18 06:16:17;;;;;;;8.15;1.02;;;10.00;99.90;;;;;;5012936;28;20040;-69
2022/09/18 06:18:43;;;;;;;5.38;0.80;;;9.70;99.90;;;;;;5013210;28;20179;-77
2022/09/18 06:21:09;;;;;;;6.13;0.80;;;9.80;99.90;;;;;;4995751;28;20081;-71
2022/09/18 06:23:34;;;;;;;4.68;1.10;;;9.80;99.90;;;;;;4995728;28;20041;-71
2022/09/18 06:26:05;;;;;;;5.28;1.10;;;9.80;99.90;;;;;;5013196;28;20476;-68
2022/09/18 06:28:33;;;;;;;6.78;1.08;;;10.00;99.90;;;;;;5018573;28;20481;-76
2022/09/18 06:30:59;;;;;;;4.55;1.10;;;9.90;99.90;;;;;;5021358;28;20041;-70
2022/09/18 06:33:25;;;;;;;4.00;0.80;;;9.80;99.90;;;;;;5022695;28;20442;-70
2022/09/18 06:35:51;;;;;;;3.88;0.77;;;9.80;99.90;;;;;;5002602;28;20085;-72
2022/09/18 06:38:16;;;;;;;7.07;0.60;;;9.80;99.90;;;;;;5012695;28;20093;-74
2022/09/18 06:40:51;;;;;;;3.92;0.60;;;9.80;99.90;;;;;;4978999;28;20129;-71
2022/09/18 06:43:17;;;;;;;3.25;1.20;;;9.80;99.90;;;;;;4995482;28;20079;-70
2022/09/18 06:45:43;;;;;;;4.05;0.68;;;9.80;99.90;;;;;;5012514;28;20057;-69
2022/09/18 06:48:09;;;;;;;3.05;0.60;;;9.70;99.90;;;;;;4995012;28;20064;-70
2022/09/18 06:50:34;;;;;;;1.23;0.60;;;9.80;99.90;;;;;;5012691;28;20050;-71
2022/09/18 06:53:06;;;;;;;4.70;0.65;;;9.90;99.90;;;;;;5012685;28;20049;-70
2022/09/18 06:55:31;;;;;;;6.22;1.55;;;9.80;99.90;;;;;;4995117;28;20128;-71
2022/09/18 06:57:58;;;;;;;2.63;0.40;;;9.90;99.90;;;;;;5012718;28;20124;-68
2022/09/18 07:00:25;;;;;;;1.60;0.52;;;9.90;99.90;;;;;;5012008;28;20042;-72
2022/09/18 07:02:59;;;;;;;3.78;0.85;;;9.90;99.90;;;;;;5012534;28;20437;-78
2022/09/18 07:05:26;;;;;;;3.97;0.60;;;10.00;99.90;;;;;;5012752;28;20046;-73
2022/09/18 07:07:52;;;;;;;3.40;0.95;;;10.00;99.90;;;;;;5012423;28;20092;-72
2022/09/18 07:10:18;;;;;;;1.67;0.55;;;10.00;99.90;;;;;;5012425;28;20445;-77
2022/09/18 07:12:47;;;;;;;2.03;0.60;;;10.00;99.90;;;;;;4994754;28;20058;-80
2022/09/18 07:15:17;;;;;;;1.80;0.60;;;10.00;99.90;;;;;;5012498;28;20042;-75
2022/09/18 07:17:43;;;;;;;4.22;0.80;;;10.00;99.90;;;;;;5012114;28;20057;-74
2022/09/18 07:20:10;;;;;;;2.85;0.80;;;10.00;99.90;;;;;;4994197;28;20054;-71
2022/09/18 07:22:37;;;;;;;7.47;0.70;;;10.10;99.90;;;;;;5012490;28;20042;-71
2022/09/18 07:25:04;;;;;;;1.95;0.68;;;10.10;99.90;;;;;;5012348;28;20042;-73
2022/09/18 07:27:30;;;;;;;3.10;0.80;;;10.10;99.90;;;;;;5012115;28;20128;-74
2022/09/18 07:29:56;;;;;;;4.07;0.75;;;10.20;99.90;;;;;;5012238;28;20077;-79
2022/09/18 07:32:23;;;;;;;4.50;0.60;;;10.10;99.90;;;;;;5012271;28;20124;-78
2022/09/18 07:34:49;;;;;;;2.13;0.55;;;10.10;99.90;;;;;;5012246;28;20054;-76
2022/09/18 07:37:15;;;;;;;4.07;1.40;;;10.20;99.90;;;;;;5012200;28;20136;-76
2022/09/18 07:39:42;;;;;;;3.72;0.85;;;10.20;99.90;;;;;;5012551;28;20050;-79
2022/09/18 07:42:12;;;;;;;1.33;0.43;;;10.20;99.90;;;;;;5012225;28;20048;-80
2022/09/18 07:44:38;;;;;;;2.28;0.60;;;10.50;99.90;;;;;;5014993;28;20045;-72
2022/09/18 07:47:04;;;;;;;5.05;0.90;;;10.50;99.90;;;;;;4982159;28;20054;-76
2022/09/18 07:49:31;;;;;;;4.97;0.60;;;10.30;99.90;;;;;;5015440;28;20049;-80
2022/09/18 07:51:57;;;;;;;2.50;0.65;;;10.40;99.90;;;;;;4998081;28;20046;-80
2022/09/18 07:54:23;;;;;;;3.75;0.88;;;10.40;99.90;;;;;;4998469;28;20045;-81
2022/09/18 07:56:49;;;;;;;3.40;0.73;;;10.50;99.90;;;;;;4998165;28;20490;-79
2022/09/18 07:59:14;;;;;;;6.25;1.42;;;10.50;99.90;;;;;;5015519;28;20042;-80
2022/09/18 08:01:40;;;;;;;2.40;0.70;;;10.50;99.90;;;;;;4998381;28;20050;-81
2022/09/18 08:04:06;;;;;;;4.40;1.00;;;10.50;99.90;;;;;;4997696;28;20045;-80
2022/09/18 08:06:31;;;;;;;6.07;0.70;;;10.50;99.90;;;;;;4997891;28;20081;-79
2022/09/18 08:08:57;;;;;;;7.05;0.80;;;10.50;99.90;;;;;;5015315;28;20049;-79
2022/09/18 08:11:23;;;;;;;4.03;0.60;;;10.50;99.90;;;;;;4997352;28;20061;-79
2022/09/18 08:13:49;;;;;;;5.25;0.82;;;10.50;99.90;;;;;;5015228;28;20057;-80
2022/09/18 08:16:15;;;;;;;2.55;0.60;;;10.50;99.90;;;;;;4981895;28;20500;-80
2022/09/18 08:18:41;;;;;;;3.15;0.55;;;10.80;99.90;;;;;;5015489;28;20042;-80
2022/09/18 08:21:07;;;;;;;2.13;0.60;;;10.60;99.90;;;;;;5014971;28;20533;-80
2022/09/18 08:23:33;;;;;;;2.67;0.80;;;10.50;99.90;;;;;;5014955;28;20046;-80
2022/09/18 08:26:00;;;;;;;2.58;0.45;;;10.60;99.90;;;;;;5014188;28;20052;-80
2022/09/18 08:28:26;;;;;;;5.20;0.82;;;10.80;99.90;;;;;;5014940;28;20081;-80
2022/09/18 08:30:52;;;;;;;2.30;0.77;;;10.70;99.90;;;;;;4997201;28;20089;-81
2022/09/18 08:33:18;;;;;;;3.05;0.75;;;10.60;99.90;;;;;;4996745;28;20137;-81
2022/09/18 08:35:43;;;;;;;3.70;0.57;;;10.80;99.90;;;;;;5014603;28;20092;-76
2022/09/18 08:38:10;;;;;;;2.67;0.70;;;10.70;99.90;;;;;;4980485;28;20060;-78
2022/09/18 08:41:08;;;;;;;9.02;0.95;;;10.60;99.90;;;;;;4997350;28;20042;-75
2022/09/18 08:43:39;;;;;;;2.90;0.63;;;10.70;99.90;;;;;;5014977;28;20054;-77
2022/09/18 08:46:13;;;;;;;2.83;0.68;;;10.70;99.90;;;;;;5014908;28;20052;-74
2022/09/18 08:49:08;;;;;;;1.83;0.60;;;10.60;99.90;;;;;;5014812;28;20033;-71
2022/09/18 08:51:53;;;;;;;3.85;0.90;;;10.60;99.90;;;;;;5013855;28;20057;-71
2022/09/18 08:54:44;;;;;;;1.45;0.50;;;10.60;99.90;;;;;;5014463;28;20045;-70
2022/09/18 08:57:22;;;;;;;2.42;0.70;;;10.60;99.90;;;;;;5014732;28;20054;-70
2022/09/18 09:00:15;;;;;;;2.40;0.70;;;10.50;99.90;;;;;;5014352;28;20061;-72
2022/09/18 09:03:03;;;;;;;1.27;0.57;;;10.60;99.90;;;;;;5014664;28;20057;-71
2022/09/18 09:05:43;;;;;;;2.60;0.60;;;10.70;99.90;;;;;;5013545;28;20054;-77
2022/09/18 09:08:18;;;;;;;4.72;0.63;;;10.80;99.90;;;;;;5014087;28;20109;-80
2022/09/18 09:11:06;;;;;;;3.85;0.88;;;10.60;99.90;;;;;;5014265;28;20080;-80
2022/09/18 09:13:48;;;;;;;3.50;0.60;;;10.70;99.90;;;;;;5014449;28;20397;-77
2022/09/18 09:16:32;;;;;;;4.82;0.70;;;10.60;99.90;;;;;;5014316;28;20056;-72
2022/09/18 09:18:59;;;;;;;4.78;0.77;;;10.70;99.90;;;;;;5013963;28;20053;-80
2022/09/18 09:21:40;;;;;;;2.72;0.55;;;11.10;99.90;;;;;;5014057;28;20034;-72
2022/09/18 09:24:28;;;;;;;6.07;0.80;;;10.70;99.90;;;;;;4996353;28;20104;-68
2022/09/18 09:26:55;;;;;;;4.03;0.80;;;10.80;99.90;;;;;;4996387;28;20045;-73
2022/09/18 09:29:39;;;;;;;4.03;0.70;;;10.70;99.90;;;;;;5013803;28;20120;-70
2022/09/18 09:32:36;;;;;;;3.13;0.70;;;10.80;99.90;;;;;;5013821;28;20061;-73
2022/09/18 09:35:17;;;;;;;2.00;0.55;;;10.90;99.90;;;;;;4934083;29;20055;-78
2022/09/18 09:37:45;;;;;;;4.10;0.77;;;10.90;99.90;;;;;;4933746;29;20059;-71
2022/09/18 09:40:45;;;;;;;2.10;0.50;;;11.00;99.90;;;;;;4918342;29;20123;-73
2022/09/18 09:43:22;;;;;;;3.80;0.40;;;10.90;99.90;;;;;;4934349;29;20058;-78
2022/09/18 09:45:51;;;;;;;1.58;0.50;;;11.00;99.90;;;;;;4918053;29;20142;-76
2022/09/18 09:48:44;;;;;;;1.98;0.50;;;10.90;99.90;;;;;;4917966;29;20063;-69
2022/09/18 09:51:50;;;;;;;1.90;0.40;;;10.90;99.90;;;;;;4861905;29;20072;-78
2022/09/18 09:54:16;;;;;;;2.50;0.47;;;11.00;99.90;;;;;;4820460;29;20061;-81
2022/09/18 09:57:08;;;;;;;3.67;0.57;;;11.00;99.90;;;;;;4821794;29;20129;-78
2022/09/18 09:59:45;;;;;;;3.80;0.67;;;11.10;99.90;;;;;;4822148;29;20054;-71
2022/09/18 10:02:45;;;;;;;2.55;0.52;;;11.10;99.90;;;;;;4805478;29;20138;-71
2022/09/18 10:05:31;;;;;;;2.88;0.70;;;11.20;99.90;;;;;;4800914;29;20074;-69
2022/09/18 10:08:02;;;;;;;2.58;0.90;;;11.20;99.90;;;;;;4819212;29;20542;-70
2022/09/18 10:10:34;;;;;;;1.35;0.60;;;11.20;99.90;;;;;;4820181;29;20054;-67
2022/09/18 10:13:13;;;;;;;4.85;0.70;;;11.10;99.90;;;;;;4871557;29;20067;-73
2022/09/18 10:15:43;;;;;;;4.65;0.63;;;11.20;99.90;;;;;;4852232;29;20613;-71
2022/09/18 10:18:20;;;;;;;1.65;0.55;;;11.00;99.90;;;;;;4856302;29;20033;-73
2022/09/18 10:20:47;;;;;;;2.45;0.70;;;11.10;99.90;;;;;;4856303;29;20049;-71
2022/09/18 10:23:25;;;;;;;3.28;0.52;;;11.20;99.90;;;;;;4857475;29;20041;-71
2022/09/18 10:25:59;;;;;;;3.25;0.75;;;11.20;99.90;;;;;;4856623;29;20061;-73
2022/09/18 10:28:28;;;;;;;8.63;0.80;;;11.50;99.90;;;;;;4962868;28;20049;-69
2022/09/18 10:30:58;;;;;;;2.15;0.57;;;11.50;99.90;;;;;;5030726;28;20045;-71
2022/09/18 10:33:34;;;;;;;3.58;0.60;;;11.50;99.90;;;;;;5005490;28;20049;-71
2022/09/18 10:36:10;;;;;;;3.00;0.60;;;11.70;99.90;;;;;;5029626;28;20045;-69
2022/09/18 10:38:39;;;;;;;6.25;0.95;;;11.70;99.90;;;;;;5030392;28;20144;-69
2022/09/18 10:41:33;;;;;;;3.03;0.63;;;11.70;99.90;;;;;;5010508;28;20061;-70
2022/09/18 10:44:06;;;;;;;2.83;0.40;;;11.80;99.90;;;;;;5028824;28;20033;-73
2022/09/18 10:46:34;;;;;;;3.05;0.70;;;11.80;99.90;;;;;;5024887;28;20204;-71
2022/09/18 10:49:23;;;;;;;5.00;0.88;;;11.90;99.90;;;;;;5024542;28;20049;-71
2022/09/18 10:52:30;;;;;;;6.10;0.70;;;11.90;99.90;;;;;;5006780;28;20394;-70
2022/09/18 10:55:06;;;;;;;3.80;0.90;;;11.90;99.90;;;;;;5024130;28;20107;-75
2022/09/18 10:57:38;;;;;;;2.20;0.52;;;12.10;99.90;;;;;;5028893;28;20073;-71
2022/09/18 11:00:24;;;;;;;;;;;12.10;99.90;;;;;;5012492;28;20038;-71
2022/09/18 11:03:22;;;;;;;7.82;1.38;;;12.20;99.90;;;;;;5007952;28;19929;-70
2022/09/18 11:06:06;;;;;;;5.68;0.55;;;12.20;99.90;;;;;;5006099;28;20091;-73
2022/09/18 11:08:49;;;;;;;6.57;1.15;;;12.30;99.90;;;;;;5024628;28;20561;-76
2022/09/18 11:11:33;;;;;;;1.63;0.45;;;12.30;99.90;;;;;;5009723;28;20124;-70
2022/09/18 11:14:14;;;;;;;4.97;0.73;;;12.40;99.90;;;;;;5010405;28;20073;-71
2022/09/18 11:16:47;;;;;;;8.43;1.40;;;12.50;99.90;;;;;;5028619;28;20397;-80
2022/09/18 11:19:13;;;;;;;5.63;0.88;;;12.50;99.90;;;;;;5029353;28;20038;-71
2022/09/18 11:21:50;;;;;;;7.82;1.15;;;12.60;99.90;;;;;;5004406;28;20042;-72
2022/09/18 11:24:30;;;;;;;5.05;0.90;;;12.60;99.90;;;;;;5025169;28;20509;-72
2022/09/18 11:26:58;;;;;;;5.25;0.98;;;12.60;99.90;;;;;;5005322;28;20050;-76
2022/09/18 11:29:32;;;;;;;6.18;0.80;;;12.60;99.90;;;;;;5031834;28;20045;-72
2022/09/18 11:32:02;;;;;;;5.72;0.88;;;12.70;99.90;;;;;;5009188;28;20058;-71
2022/09/18 11:34:43;;;;;;;4.15;0.80;;;12.70;99.90;;;;;;5033869;28;20124;-70
2022/09/18 11:37:12;;;;;;;4.93;0.80;;;12.80;99.90;;;;;;5008666;28;20413;-75
2022/09/18 11:39:49;;;;;;;3.42;1.08;;;12.80;99.90;;;;;;5020460;28;20042;-70
2022/09/18 11:42:16;;;;;;;5.03;0.82;;;12.80;99.90;;;;;;5018532;28;20046;-69
2022/09/18 11:44:42;;;;;;;4.88;0.90;;;12.90;99.90;;;;;;5022867;28;20046;-68
2022/09/18 11:47:26;;;;;;;6.97;0.95;;;12.90;99.90;;;;;;5028892;28;20090;-69
2022/09/18 11:50:11;;;;;;;3.50;0.80;;;13.10;99.90;;;;;;4995015;28;20393;-68
2022/09/18 11:52:47;;;;;;;5.93;0.90;;;13.00;99.90;;;;;;5022251;28;20042;-71
2022/09/18 11:55:29;;;;;;;2.83;0.75;;;13.20;99.90;;;;;;5019872;28;20042;-71
2022/09/18 11:58:03;;;;;;;10.35;1.10;;;13.10;99.90;;;;;;5030025;28;20049;-75
2022/09/18 12:00:41;;;;;;;4.32;0.88;;;13.10;99.90;;;;;;5025550;28;20042;-70
2022/09/18 12:03:09;;;;;;;2.40;0.75;;;13.10;99.90;;;;;;5029431;28;20810;-72
2022/09/18 12:05:52;;;;;;;5.10;0.70;;;13.10;99.90;;;;;;5028559;28;20041;-75
2022/09/18 12:08:41;;;;;;;4.53;0.95;;;13.10;99.90;;;;;;5024348;28;20038;-75
2022/09/18 12:11:16;;;;;;;5.45;0.68;;;13.00;99.90;;;;;;4993116;28;20058;-80
2022/09/18 12:14:04;;;;;;;5.57;0.65;;;13.00;99.90;;;;;;5027597;28;20436;-81
2022/09/18 12:17:10;;;;;;;3.38;0.50;;;13.00;99.90;;;;;;5007389;28;20053;-78
2022/09/18 12:19:48;;;;;;;6.47;0.82;;;13.00;99.90;;;;;;5033652;28;20433;-82
2022/09/18 12:22:21;;;;;;;7.35;0.95;;;13.10;99.90;;;;;;5034504;28;20140;-83
2022/09/18 12:24:47;;;;;;;5.45;1.05;;;13.20;99.90;;;;;;5035167;28;20049;-74
2022/09/18 12:27:34;;;;;;;4.95;0.88;;;13.20;99.90;;;;;;5017633;28;20084;-73
2022/09/18 12:30:08;;;;;;;5.40;1.10;;;13.20;99.90;;;;;;5016474;28;20124;-78
2022/09/18 12:33:08;;;;;;;5.45;0.80;;;13.30;99.90;;;;;;5034831;28;20045;-83
2022/09/18 12:36:00;;;;;;;4.93;0.68;;;13.40;99.90;;;;;;5016616;28;20068;-77
2022/09/18 12:38:53;;;;;;;10.97;1.53;;;13.60;99.90;;;;;;4919332;29;20103;-75
2022/09/18 12:41:45;;;;;;;11.07;1.35;;;13.80;99.90;;;;;;4919523;29;20096;-80
2022/09/18 12:44:58;;;;;;;5.75;1.00;;;14.10;99.90;;;;;;4935538;29;20059;-82
2022/09/18 12:47:40;;;;;;;3.95;0.88;;;14.40;99.90;;;;;;4896600;29;20053;-83
2022/09/18 12:50:12;;;;;;;2.00;0.65;;;14.60;99.90;;;;;;4881594;29;20501;-81
2022/09/18 12:52:59;;;;;;;5.53;1.17;;;14.60;99.90;;;;;;4897401;29;20057;-81
2022/09/18 12:56:09;;;;;;;6.60;1.05;;;14.70;99.90;;;;;;4881605;29;20140;-82
2022/09/18 12:59:02;;;;;;;4.82;0.73;;;14.80;99.90;;;;;;4882348;29;20045;-88
2022/09/18 13:02:07;;;;;;;3.88;0.80;;;14.80;99.90;;;;;;4896547;29;20044;-80
2022/09/18 13:04:37;;;;;;;5.25;0.90;;;14.90;99.90;;;;;;4881271;29;20462;-77
2022/09/18 13:07:39;;;;;;;6.05;1.08;;;14.90;99.90;;;;;;4897084;29;20123;-71
2022/09/18 13:10:25;;;;;;;6.90;0.90;;;14.80;99.90;;;;;;5406178;23;20135;-74
2022/09/18 13:12:59;;;;;;;4.38;1.10;;;14.80;99.90;;;;;;4994186;28;20104;-76
2022/09/18 13:16:00;;;;;;;5.85;1.17;;;14.90;99.90;;;;;;4994153;28;20069;-72
2022/09/18 13:18:48;;;;;;;7.95;1.00;;;15.00;99.90;;;;;;4909896;29;20051;-73
2022/09/18 13:21:23;;;;;;;2.45;0.60;;;14.90;99.90;;;;;;4917122;29;20048;-69
2022/09/18 13:23:51;;;;;;;5.97;1.50;;;14.70;99.90;;;;;;4922260;29;20554;-70